Airfield :
LOGIN :

Register | Disclaimer

   EN    FR    IT 

 










Legend :    VFR   Marginal VFR   IFR   Intensive IFR   Very Intensive IFR
Visi :
Ceiling :
>= 8 km
>= 3000ft
5 to 8 km
1000 to 3000 ft
1500m to 5 km
500 to 1000 ft
800 to 1500m
200 to 500 ft
< 800m
< 200 ft
Symbols :   Thunderstorms  Fog  Heavy snow  Heavy precipitations  Wind > 20 kt
SIGMETs :     Misc.  Thunderstorms  Icing  Turbulence  Mountain Waves  Volcanic Ashes







- Airport Elevation : 353 ft
- IATA code : LIN


LIML - Milano Linate

EXPIRED METARs :
  • 241420Z 21005KT CAVOK 32/20 Q1012 NOSIG
  • 241350Z 23004KT 180V310 9999 FEW050 33/20 Q1013 NOSIG
  • 241320Z 20004KT 160V270 9999 FEW050 33/20 Q1013 NOSIG
  • 241250Z 24005KT 180V300 9999 SCT050 32/19 Q1013 NOSIG
  • 241220Z 19006KT 160V220 9999 SCT070 32/19 Q1014 NOSIG
  • 241150Z VRB05KT CAVOK 32/19 Q1014 NOSIG

Expired Forecast.
No reported NOTAMs for that airfield.
1 SIGMET reported for the Milano FIR (LIMM) :
 
Embedded thunderstorms
LIMM SIGMET 1 VALID 242000/242200 LIMM- LIMM MILANO FIR EMBD TS OBS N OF LINE N4635 E01018 - N4602 E01334 CB TOP AT FL390 STNR NC=



MET'MAP, your aeronautical weather chart ! - Copyright ORBIFLY December 2007 - Disclaimer

ORBIFLY MET'MAP TEAM :

Programming & Development : Alexandra Zaïnal
Concept & Development : Baudouin d'Aumeries
Co-Development & Prog : Marc-Olivier Méhu
Technical & hardware support : Manuel Goepfert

Contact : metmap@orbifly.com




SOURCES & CREDITS :

   NOAA